Time;durP1;ratioP1;P1;durP2;ratioP2;P2;SDS_P1;SDS_P2;PMS_P1;PMS_P2;Temp;Humidity;BMP_temperature;BMP_pressure;BME280_temperature;BME280_humidity;BME280_pressure;Samples;Min_cycle;Max_cycle;Signal;HPM_P1;HPM_P2
2022/08/10 00:02:34;;;;;;;9.07;2.85;;;;;;;21.41;47.59;102128.06;4976580;28;20488;-57
2022/08/10 00:05:01;;;;;;;10.32;2.80;;;;;;;21.45;48.01;102123.13;4975793;28;20050;-57
2022/08/10 00:07:28;;;;;;;9.48;3.03;;;;;;;21.36;47.55;102124.25;4976171;28;20047;-58
2022/08/10 00:09:54;;;;;;;8.73;2.85;;;;;;;21.31;47.46;102119.44;4975944;28;20400;-58
2022/08/10 00:12:21;;;;;;;8.07;2.55;;;;;;;21.40;47.91;102118.28;4976274;28;20050;-57
2022/08/10 00:14:47;;;;;;;8.65;2.80;;;;;;;21.26;47.55;102117.28;4975819;28;20038;-59
2022/08/10 00:17:14;;;;;;;8.40;2.90;;;;;;;21.33;47.96;102113.84;4976197;28;20113;-57
2022/08/10 00:20:02;;;;;;;10.30;2.90;;;;;;;21.29;48.31;102114.22;4976121;28;20492;-57
2022/08/10 00:22:30;;;;;;;11.48;2.97;;;;;;;21.29;48.08;102114.22;4975692;28;20129;-57
2022/08/10 00:24:56;;;;;;;11.88;2.80;;;;;;;21.36;48.01;102117.00;4975907;28;20042;-57
2022/08/10 00:27:25;;;;;;;11.65;2.90;;;;;;;21.27;47.60;102107.34;4975969;28;20484;-57
2022/08/10 00:29:53;;;;;;;9.30;2.75;;;;;;;21.32;47.81;102113.00;4976176;28;20050;-57
2022/08/10 00:32:20;;;;;;;17.25;3.17;;;;;;;21.31;47.77;102110.50;4975494;28;20046;-56
2022/08/10 00:34:47;;;;;;;14.93;2.90;;;;;;;21.02;48.09;102113.09;4976030;28;20058;-56
2022/08/10 00:37:16;;;;;;;7.80;2.72;;;;;;;21.14;48.39;102110.75;4975482;28;20070;-56
2022/08/10 00:39:43;;;;;;;13.93;3.15;;;;;;;21.20;48.16;102111.84;4975923;28;20074;-57
2022/08/10 00:42:13;;;;;;;7.45;3.05;;;;;;;21.16;48.25;102105.16;4975667;28;20051;-56
2022/08/10 00:44:43;;;;;;;9.30;2.85;;;;;;;21.03;48.49;102100.47;4975557;28;20038;-56
2022/08/10 00:47:12;;;;;;;9.20;2.97;;;;;;;21.07;48.84;102099.88;4975128;28;20051;-56
2022/08/10 00:49:39;;;;;;;8.48;2.97;;;;;;;21.00;48.12;102100.84;4975348;28;20455;-56
2022/08/10 00:52:08;;;;;;;13.00;2.97;;;;;;;20.97;48.61;102091.25;4956923;28;20568;-56
2022/08/10 00:54:36;;;;;;;12.50;2.92;;;;;;;21.07;48.50;102090.97;4956435;28;20043;-56
2022/08/10 00:57:04;;;;;;;8.50;2.95;;;;;;;20.93;48.69;102089.97;4956061;29;20062;-57
2022/08/10 00:59:32;;;;;;;10.60;3.10;;;;;;;21.01;49.21;102086.31;4939194;29;20047;-57
2022/08/10 01:02:00;;;;;;;14.30;3.05;;;;;;;21.01;48.63;102089.88;4955416;29;20047;-56
2022/08/10 01:04:27;;;;;;;8.73;2.85;;;;;;;21.01;49.00;102089.88;4956043;29;20496;-56
2022/08/10 01:07:20;;;;;;;9.63;3.00;;;;;;;20.96;48.38;102091.47;4955901;29;20102;-56
2022/08/10 01:10:50;;;;;;;9.68;3.00;;;;;;;20.92;48.36;102090.16;4955680;28;20061;-57
2022/08/10 01:13:47;;;;;;;10.23;2.92;;;;;;;20.94;49.28;102094.34;4955319;28;20118;-57
2022/08/10 01:16:20;;;;;;;11.57;3.20;;;;;;;20.85;49.74;102090.09;4955467;28;20035;-57
2022/08/10 01:18:57;;;;;;;9.95;3.00;;;;;;;20.79;49.60;102093.53;4955648;29;20051;-57
2022/08/10 01:22:03;;;;;;;7.75;3.03;;;;;;;20.70;49.62;102090.09;4938763;29;20065;-58
2022/08/10 01:27:23;;;;;;;12.25;3.00;;;;;;;20.76;50.34;102083.13;5110944;27;20376;-56
2022/08/10 01:30:02;;;;;;;12.63;2.92;;;;;;;20.67;50.55;102083.22;5110893;28;20058;-56
2022/08/10 01:32:36;;;;;;;9.15;2.85;;;;;;;20.66;50.66;102078.03;5110964;28;20048;-57
2022/08/10 01:35:14;;;;;;;11.63;3.13;;;;;;;20.56;51.03;102078.31;5111152;28;20052;-58
2022/08/10 01:37:50;;;;;;;11.93;3.00;;;;;;;20.59;51.24;102079.78;5110916;28;20044;-58
2022/08/10 01:40:22;;;;;;;7.85;3.17;;;;;;;20.53;50.93;102075.97;5111161;28;20044;-57
2022/08/10 01:42:50;;;;;;;13.50;3.20;;;;;;;20.50;51.16;102076.34;5111264;28;20058;-57
2022/08/10 01:45:21;;;;;;;13.68;3.20;;;;;;;20.53;51.21;102079.50;5110718;28;20089;-57
2022/08/10 01:50:43;;;;;;;10.80;3.17;;;;;;;20.38;52.10;102083.25;5096130;28;20054;-57
2022/08/10 01:53:16;;;;;;;10.52;3.10;;;;;;;20.33;51.84;102081.09;5110002;28;20054;-57
2022/08/10 01:55:43;;;;;;;13.77;3.10;;;;;;;20.28;52.00;102078.13;5108927;28;20442;-57
2022/08/10 01:58:12;;;;;;;8.82;2.95;;;;;;;20.27;51.97;102079.16;5110439;28;20043;-57
2022/08/10 02:00:44;;;;;;;8.20;2.85;;;;;;;20.16;52.48;102071.53;5110615;28;20385;-58
2022/08/10 02:03:13;;;;;;;11.00;3.17;;;;;;;20.18;51.55;102069.50;5110406;28;20058;-56
2022/08/10 02:05:43;;;;;;;8.75;3.00;;;;;;;20.10;52.21;102075.78;5108340;28;20408;-58
2022/08/10 02:08:14;;;;;;;7.57;3.13;;;;;;;20.07;52.30;102068.94;5110736;28;20039;-57
2022/08/10 02:10:44;;;;;;;13.20;3.42;;;;;;;20.11;52.89;102072.09;5110304;28;20447;-57
2022/08/10 02:13:13;;;;;;;12.45;3.13;;;;;;;20.01;53.39;102077.75;5110516;28;20489;-57
2022/08/10 02:15:43;;;;;;;12.35;3.20;;;;;;;19.96;53.36;102071.25;5110151;28;20055;-57
2022/08/10 02:18:11;;;;;;;8.93;3.03;;;;;;;19.93;53.74;102072.44;5109771;28;20040;-58
2022/08/10 02:20:44;;;;;;;9.32;3.13;;;;;;;19.86;53.83;102069.63;5110288;28;20175;-57
2022/08/10 02:23:16;;;;;;;11.18;3.00;;;;;;;19.81;53.30;102073.91;5109897;28;20127;-56
2022/08/10 02:25:43;;;;;;;7.30;3.00;;;;;;;19.70;54.00;102080.53;5109788;28;20052;-57
2022/08/10 02:28:14;;;;;;;12.13;3.20;;;;;;;19.71;53.94;102072.28;5110274;28;20048;-57
2022/08/10 02:30:43;;;;;;;10.73;3.25;;;;;;;19.68;54.13;102078.03;5109831;28;20044;-56
2022/08/10 02:33:11;;;;;;;9.80;3.17;;;;;;;19.65;54.61;102073.00;5109281;28;20088;-57
2022/08/10 02:35:39;;;;;;;8.50;3.00;;;;;;;19.58;54.62;102080.13;5109539;28;20427;-57
2022/08/10 02:38:08;;;;;;;10.95;3.35;;;;;;;19.48;55.27;102076.84;5099259;28;20538;-56
2022/08/10 02:40:40;;;;;;;11.20;2.95;;;;;;;19.55;55.32;102086.72;5096347;28;20094;-56
2022/08/10 02:43:11;;;;;;;;;;;;;;;19.44;55.20;102084.44;5096743;28;20092;-57
2022/08/10 02:46:04;;;;;;;8.98;3.38;;;;;;;19.40;54.47;102085.81;5094905;28;20025;-57
2022/08/10 02:48:41;;;;;;;10.40;3.33;;;;;;;19.43;55.47;102090.00;5095600;28;20119;-57
2022/08/10 02:51:16;;;;;;;9.23;3.22;;;;;;;19.41;55.51;102090.22;5095883;28;20044;-57
2022/08/10 02:53:48;;;;;;;8.75;3.10;;;;;;;19.33;55.37;102088.38;5096047;28;20105;-57
2022/08/10 02:56:21;;;;;;;9.82;3.22;;;;;;;19.25;55.59;102076.88;5096071;28;20050;-57
2022/08/10 02:58:55;;;;;;;8.25;3.20;;;;;;;19.21;56.15;102081.78;5095785;28;20048;-57
2022/08/10 03:01:26;;;;;;;8.93;3.20;;;;;;;19.16;56.45;102073.41;5082465;28;20051;-57
2022/08/10 03:04:01;;;;;;;8.18;3.10;;;;;;;19.20;56.83;102072.03;5095470;28;20040;-57
2022/08/10 03:06:34;;;;;;;9.55;3.35;;;;;;;19.13;57.29;102071.06;5095129;28;20471;-58
2022/08/10 03:09:05;;;;;;;10.40;3.47;;;;;;;19.06;56.70;102073.63;5095608;28;20051;-57
2022/08/10 03:11:34;;;;;;;6.85;3.20;;;;;;;19.06;57.14;102070.91;5095575;28;20047;-58
2022/08/10 03:14:03;;;;;;;12.05;3.60;;;;;;;19.08;57.90;102068.91;5095691;28;20044;-57
2022/08/10 03:16:32;;;;;;;13.57;3.50;;;;;;;19.04;58.61;102074.81;5095596;28;20040;-58
2022/08/10 03:19:03;;;;;;;10.00;3.78;;;;;;;19.12;58.00;102064.84;5095257;28;20048;-57
2022/08/10 03:21:31;;;;;;;13.10;4.00;;;;;;;19.06;57.83;102064.72;5095856;28;20063;-57
2022/08/10 03:24:01;;;;;;;8.90;3.30;;;;;;;19.10;58.40;102072.25;5095386;28;20071;-57
2022/08/10 03:26:31;;;;;;;10.13;3.30;;;;;;;19.05;58.23;102068.44;5095013;28;20047;-58
2022/08/10 03:29:02;;;;;;;8.48;3.72;;;;;;;18.89;58.15;102075.56;5095260;28;20126;-57
2022/08/10 03:31:31;;;;;;;12.20;3.65;;;;;;;18.94;58.55;102067.00;5094691;28;20075;-57
2022/08/10 03:34:00;;;;;;;9.25;3.40;;;;;;;18.86;58.12;102072.41;5095039;28;20071;-57
2022/08/10 03:36:27;;;;;;;8.15;3.45;;;;;;;18.85;58.99;102066.19;5094448;28;20040;-56
2022/08/10 03:38:54;;;;;;;16.70;3.63;;;;;;;18.83;59.45;102064.69;5095882;28;20091;-56
2022/08/10 03:41:33;;;;;;;11.00;3.72;;;;;;;18.66;59.67;102061.22;5094545;28;20040;-56
2022/08/10 03:44:02;;;;;;;12.02;3.75;;;;;;;18.57;60.03;102063.97;5091848;28;20042;-57
2022/08/10 03:46:30;;;;;;;12.85;4.10;;;;;;;18.65;60.16;102064.94;5082102;28;20056;-57
2022/08/10 03:49:01;;;;;;;11.00;4.22;;;;;;;18.52;60.88;102065.47;5086980;28;20050;-58
2022/08/10 03:51:28;;;;;;;9.88;3.92;;;;;;;18.43;61.28;102070.06;5093579;28;20111;-57
2022/08/10 03:53:55;;;;;;;9.77;4.07;;;;;;;18.43;61.08;102064.69;5086144;28;20036;-57
2022/08/10 03:56:22;;;;;;;10.15;3.83;;;;;;;18.43;61.28;102067.38;5074542;28;20041;-56
2022/08/10 03:58:50;;;;;;;10.90;3.60;;;;;;;18.45;61.96;102064.50;5072906;28;20051;-57
2022/08/10 04:01:18;;;;;;;10.07;3.80;;;;;;;18.42;61.71;102065.69;5093648;28;20040;-58
2022/08/10 04:03:45;;;;;;;11.80;4.07;;;;;;;18.40;61.89;102067.72;5089041;28;20047;-58
2022/08/10 04:06:12;;;;;;;17.38;4.68;;;;;;;18.38;62.06;102067.03;5091293;28;20039;-57
2022/08/10 04:08:41;;;;;;;11.15;4.10;;;;;;;18.36;62.24;102077.97;5075555;28;20052;-56
2022/08/10 04:11:10;;;;;;;12.27;4.32;;;;;;;18.32;62.65;102071.28;5074204;28;20044;-56
2022/08/10 04:13:38;;;;;;;13.43;4.28;;;;;;;18.35;63.08;102075.44;5072435;28;21187;-57
2022/08/10 04:16:05;;;;;;;9.52;4.13;;;;;;;18.33;63.38;102072.09;5087240;28;20067;-57
2022/08/10 04:18:32;;;;;;;15.80;4.00;;;;;;;18.32;63.27;102078.47;5094530;28;20075;-57
2022/08/10 04:21:07;;;;;;;11.77;4.70;;;;;;;18.36;63.60;102077.13;5093306;28;20489;-57
2022/08/10 04:23:39;;;;;;;25.30;4.47;;;;;;;18.34;63.96;102069.25;5092450;28;20036;-58
2022/08/10 04:26:06;;;;;;;9.75;3.95;;;;;;;18.35;63.78;102070.91;5073506;28;20045;-57
2022/08/10 04:28:33;;;;;;;11.38;4.13;;;;;;;18.40;63.63;102075.78;5073454;28;20068;-56
2022/08/10 04:31:01;;;;;;;11.13;4.03;;;;;;;18.34;63.57;102069.25;5087075;28;20079;-56
2022/08/10 04:33:31;;;;;;;10.02;4.40;;;;;;;18.35;63.72;102078.13;5092475;28;20127;-57
2022/08/10 04:35:59;;;;;;;12.02;4.10;;;;;;;18.40;63.14;102076.59;5091402;28;20040;-56
2022/08/10 04:38:28;;;;;;;14.68;4.75;;;;;;;18.40;64.07;102079.28;5093910;28;20040;-56
2022/08/10 04:40:56;;;;;;;10.32;4.18;;;;;;;18.45;63.83;102077.94;5093682;28;20396;-56
2022/08/10 04:43:22;;;;;;;16.63;4.40;;;;;;;18.43;63.81;102075.44;5089198;28;20093;-58
2022/08/10 04:45:49;;;;;;;8.35;3.88;;;;;;;18.51;63.58;102071.88;5093614;28;20480;-56
2022/08/10 04:48:21;;;;;;;12.82;4.28;;;;;;;18.46;63.65;102072.38;5092517;28;20036;-56
2022/08/10 04:50:48;;;;;;;13.30;4.13;;;;;;;18.50;64.19;102078.25;5090657;28;20492;-56
2022/08/10 04:53:14;;;;;;;11.15;4.32;;;;;;;18.47;64.05;102074.06;5087662;28;20042;-57
2022/08/10 04:55:41;;;;;;;13.98;4.95;;;;;;;18.52;63.48;102078.91;5073336;28;20044;-57
2022/08/10 04:58:08;;;;;;;11.85;4.32;;;;;;;18.56;63.66;102077.56;5074011;28;20090;-57
2022/08/10 05:00:34;;;;;;;12.45;4.30;;;;;;;18.57;63.74;102073.84;5092386;28;20063;-57
2022/08/10 05:03:01;;;;;;;10.65;4.82;;;;;;;18.53;64.00;102067.16;5092843;28;20044;-57
2022/08/10 05:05:28;;;;;;;18.27;4.97;;;;;;;18.58;63.56;102078.22;5091929;28;20040;-58
2022/08/10 05:07:54;;;;;;;15.52;4.95;;;;;;;18.59;63.08;102074.50;5070965;28;20516;-56
2022/08/10 05:10:21;;;;;;;12.30;4.53;;;;;;;18.65;63.62;102071.13;5072061;28;20049;-56
2022/08/10 05:12:48;;;;;;;11.88;5.05;;;;;;;18.67;63.67;102076.34;5083408;28;20070;-56
2022/08/10 05:15:17;;;;;;;17.50;4.65;;;;;;;18.68;62.57;102078.84;5093127;28;20485;-56
2022/08/10 05:17:44;;;;;;;16.05;4.80;;;;;;;18.74;63.56;102082.69;5092099;28;20040;-56
2022/08/10 05:20:11;;;;;;;15.95;4.80;;;;;;;18.75;63.30;102078.97;5092274;28;20054;-56
2022/08/10 05:22:40;;;;;;;13.18;4.70;;;;;;;18.72;63.22;102080.19;5091953;28;20374;-56
2022/08/10 05:25:11;;;;;;;14.23;4.80;;;;;;;18.64;62.93;102082.06;5091875;28;20070;-56
2022/08/10 05:27:39;;;;;;;14.38;4.60;;;;;;;18.64;62.92;102079.38;5091251;28;20123;-56
2022/08/10 05:30:09;;;;;;;12.95;4.78;;;;;;;18.86;63.04;102081.28;5083417;28;20444;-57
2022/08/10 05:32:36;;;;;;;13.55;5.03;;;;;;;18.96;62.86;102081.91;5077879;28;20105;-57
2022/08/10 05:35:04;;;;;;;16.25;4.70;;;;;;;18.94;63.21;102080.44;5091517;28;20075;-58
2022/08/10 05:37:31;;;;;;;16.42;4.75;;;;;;;18.97;62.94;102086.28;5093103;28;20046;-57
2022/08/10 05:40:01;;;;;;;15.23;4.60;;;;;;;19.00;62.55;102087.78;5085619;28;20366;-57
2022/08/10 05:42:28;;;;;;;13.15;4.53;;;;;;;19.01;62.73;102088.59;5091807;28;20047;-57
2022/08/10 05:44:55;;;;;;;14.57;4.30;;;;;;;18.98;63.17;102089.81;5092789;28;20044;-57
2022/08/10 05:47:22;;;;;;;19.42;5.22;;;;;;;19.01;63.13;102094.00;5090897;28;20062;-57
2022/08/10 05:49:51;;;;;;;16.33;5.03;;;;;;;19.03;62.79;102097.34;5090937;28;20044;-57
2022/08/10 05:52:19;;;;;;;17.88;5.00;;;;;;;19.10;62.48;102096.47;5091485;28;20052;-57
2022/08/10 05:54:46;;;;;;;18.15;5.38;;;;;;;19.05;60.73;102096.16;5092257;28;20044;-57
2022/08/10 05:57:15;;;;;;;20.83;7.38;;;;;;;19.18;61.08;102100.94;5092364;28;20050;-57
2022/08/10 05:59:48;;;;;;;16.92;6.05;;;;;;;19.31;60.80;102098.50;5092897;28;20621;-57
2022/08/10 06:02:23;;;;;;;19.17;5.57;;;;;;;19.39;60.75;102100.28;5092633;28;20074;-57
2022/08/10 06:04:51;;;;;;;15.23;5.30;;;;;;;19.39;59.54;102100.28;5092281;28;20040;-57
2022/08/10 06:07:19;;;;;;;19.20;5.20;;;;;;;19.46;59.28;102100.41;5092960;28;20040;-57
2022/08/10 06:09:49;;;;;;;16.00;5.00;;;;;;;19.49;58.39;102097.38;5092548;28;20076;-57
2022/08/10 06:12:18;;;;;;;13.10;4.32;;;;;;;19.44;56.19;102097.91;5093764;28;20106;-56
2022/08/10 06:15:01;;;;;;;13.88;4.63;;;;;;;19.62;57.46;102100.28;5096774;28;20048;-58
2022/08/10 06:17:30;;;;;;;19.95;5.20;;;;;;;19.64;55.86;102098.25;5095549;28;20051;-57
2022/08/10 06:19:58;;;;;;;21.58;4.75;;;;;;;19.75;57.08;102099.69;5096578;28;20044;-57
2022/08/10 06:22:27;;;;;;;21.77;5.05;;;;;;;19.73;55.42;102099.03;5097486;28;20378;-57
2022/08/10 06:24:56;;;;;;;14.25;4.40;;;;;;;19.84;55.24;102097.78;5080433;28;20043;-54
2022/08/10 06:27:39;;;;;;;15.32;4.60;;;;;;;19.93;54.86;102097.50;5092767;28;20032;-51
2022/08/10 06:30:06;;;;;;;14.70;4.70;;;;;;;20.01;53.64;102103.81;5091315;28;20109;-57
2022/08/10 06:32:33;;;;;;;10.35;4.82;;;;;;;20.09;53.66;102109.97;5082350;28;20051;-50
2022/08/10 06:35:03;;;;;;;15.63;5.00;;;;;;;20.18;52.73;102109.91;5094363;28;20405;-51
2022/08/10 06:37:30;;;;;;;17.00;4.70;;;;;;;20.28;53.29;102111.31;5092219;28;20040;-52
2022/08/10 06:39:57;;;;;;;22.08;5.40;;;;;;;20.30;58.75;102106.56;5079543;28;20541;-49
2022/08/10 06:42:32;;;;;;;25.55;6.28;;;;;;;20.34;62.63;102104.34;5076080;28;20040;-53
2022/08/10 06:45:10;;;;;;;20.42;5.43;;;;;;;20.28;61.45;102103.22;5094113;28;20093;-59
2022/08/10 06:47:58;;;;;;;15.95;4.90;;;;;;;20.20;58.57;102106.00;5088020;28;20393;-59
2022/08/10 06:50:34;;;;;;;11.75;5.38;;;;;;;20.22;62.17;102103.13;5091187;28;20135;-59
2022/08/10 06:53:01;;;;;;;16.00;5.47;;;;;;;20.24;60.96;102103.75;5088302;28;20097;-59
2022/08/10 06:55:30;;;;;;;18.02;5.13;;;;;;;20.09;57.49;102107.28;5081332;28;20040;-57
2022/08/10 06:57:59;;;;;;;17.98;6.00;;;;;;;20.15;59.32;102105.72;5076921;28;20105;-57
2022/08/10 07:00:28;;;;;;;17.15;5.85;;;;;;;20.26;61.19;102102.53;5075134;28;20049;-57
2022/08/10 07:03:02;;;;;;;14.73;5.40;;;;;;;20.29;59.24;102101.34;5075070;28;20405;-57
2022/08/10 07:05:30;;;;;;;16.67;5.20;;;;;;;20.28;60.84;102099.66;5074339;28;20497;-57
2022/08/10 07:07:59;;;;;;;14.43;5.35;;;;;;;20.30;60.48;102108.41;5089628;28;20059;-57
2022/08/10 07:10:27;;;;;;;14.95;5.50;;;;;;;20.40;58.72;102106.28;5092011;28;20047;-64
2022/08/10 07:12:56;;;;;;;16.83;4.70;;;;;;;20.37;55.42;102106.63;5099496;28;20048;-64
2022/08/10 07:15:24;;;;;;;17.10;4.70;;;;;;;20.52;54.19;102112.88;5094785;28;20048;-64
2022/08/10 07:17:52;;;;;;;18.48;5.38;;;;;;;20.58;58.32;102114.00;5077770;28;20067;-64
2022/08/10 07:20:20;;;;;;;13.45;4.90;;;;;;;20.70;54.25;102119.75;5088098;28;20041;-64
2022/08/10 07:22:50;;;;;;;11.63;5.18;;;;;;;20.66;54.09;102113.91;5051774;27;20740;-64
2022/08/10 07:25:23;;;;;;;17.50;5.78;;;;;;;20.76;57.57;102110.09;5048913;28;20040;-64
2022/08/10 07:27:51;;;;;;;16.45;5.45;;;;;;;20.78;53.01;102105.34;5056714;28;20037;-64
2022/08/10 07:30:18;;;;;;;17.25;6.57;;;;;;;20.86;55.03;102111.44;5053041;28;20107;-64
2022/08/10 07:32:49;;;;;;;18.48;5.50;;;;;;;20.90;54.64;102111.91;5053139;28;20520;-65
2022/08/10 07:35:19;;;;;;;16.35;5.00;;;;;;;20.98;54.59;102110.97;5048343;28;20044;-63
2022/08/10 07:37:49;;;;;;;13.93;5.03;;;;;;;21.05;53.42;102114.59;5052100;28;20490;-63
2022/08/10 07:40:18;;;;;;;21.48;5.78;;;;;;;21.12;56.97;102112.81;5051782;28;20041;-64
2022/08/10 07:42:50;;;;;;;17.63;4.68;;;;;;;21.18;54.97;102120.13;5056620;28;20033;-64
2022/08/10 07:45:17;;;;;;;16.02;5.18;;;;;;;21.23;57.72;102120.41;5052274;28;20048;-64
2022/08/10 07:47:51;;;;;;;20.42;4.82;;;;;;;21.26;54.46;102124.56;5022910;28;20128;-64
2022/08/10 07:50:23;;;;;;;14.43;5.43;;;;;;;21.34;55.05;102129.00;5035560;28;20107;-64
2022/08/10 07:52:54;;;;;;;17.63;4.45;;;;;;;21.27;52.68;102129.78;5029375;28;20052;-64
2022/08/10 07:55:21;;;;;;;12.27;5.00;;;;;;;21.34;52.91;102129.84;5033495;28;20069;-64
2022/08/10 07:57:51;;;;;;;13.68;5.50;;;;;;;21.44;53.13;102127.66;5017140;28;20179;-64
2022/08/10 08:00:19;;;;;;;13.05;4.60;;;;;;;21.64;49.20;102130.56;5038677;28;20200;-65
2022/08/10 08:02:55;;;;;;;19.73;5.78;;;;;;;21.77;50.19;102126.31;5023063;28;20061;-64
2022/08/10 08:05:25;;;;;;;14.50;4.60;;;;;;;21.90;48.78;102131.00;5037216;28;20069;-64
2022/08/10 08:07:54;;;;;;;16.85;4.75;;;;;;;22.02;46.57;102126.72;5026389;28;20045;-63
2022/08/10 08:10:23;;;;;;;11.82;4.90;;;;;;;22.08;48.99;102128.63;5017974;28;20127;-64
2022/08/10 08:12:51;;;;;;;14.18;4.82;;;;;;;22.11;50.22;102132.81;5011746;28;20423;-64
2022/08/10 08:15:21;;;;;;;18.35;5.15;;;;;;;22.27;51.08;102129.00;5013577;28;20058;-64
2022/08/10 08:17:49;;;;;;;20.65;4.57;;;;;;;22.30;49.98;102128.59;5014438;28;20065;-64
2022/08/10 08:20:17;;;;;;;20.58;4.70;;;;;;;22.41;47.47;102125.34;5020283;28;20045;-64
2022/08/10 08:22:46;;;;;;;13.57;4.80;;;;;;;22.52;48.18;102124.78;5013823;28;20045;-64
2022/08/10 08:25:15;;;;;;;16.55;4.72;;;;;;;22.65;48.49;102129.44;5024706;28;20415;-64
2022/08/10 08:27:43;;;;;;;17.10;4.82;;;;;;;22.78;46.93;102129.47;5012717;28;20088;-63
2022/08/10 08:30:10;;;;;;;12.02;4.13;;;;;;;22.86;46.46;102128.47;5013656;28;20038;-65
2022/08/10 08:32:40;;;;;;;13.80;4.80;;;;;;;22.96;47.40;102125.41;5012166;28;20053;-64
2022/08/10 08:35:10;;;;;;;28.40;4.80;;;;;;;23.06;46.10;102125.03;5017226;28;20137;-64
2022/08/10 08:37:39;;;;;;;11.02;4.75;;;;;;;23.18;45.23;102121.53;5013167;28;20088;-65
2022/08/10 08:40:12;;;;;;;17.77;4.90;;;;;;;23.30;44.62;102116.34;5018965;28;20041;-63
2022/08/10 08:43:19;;;;;;;21.95;4.57;;;;;;;23.42;45.17;102118.44;5016961;28;20046;-65
2022/08/10 08:46:03;;;;;;;12.27;4.65;;;;;;;23.61;44.05;102117.59;5011964;28;20044;-65
2022/08/10 08:48:52;;;;;;;10.50;4.40;;;;;;;23.76;43.38;102118.25;5012817;28;20034;-65
2022/08/10 08:51:58;;;;;;;16.50;4.63;;;;;;;23.87;42.66;102116.81;5011992;28;20117;-65
2022/08/10 08:57:27;;;;;;;13.68;4.43;;;;;;;24.32;42.14;102100.69;5108359;27;20355;-63
2022/08/10 09:00:18;;;;;;;20.23;4.38;;;;;;;24.41;41.80;102095.03;5087030;28;20503;-64
2022/08/10 09:03:24;;;;;;;13.10;4.53;;;;;;;24.47;40.93;102099.59;5093769;28;20048;-64
2022/08/10 09:06:21;;;;;;;15.23;4.60;;;;;;;24.50;40.49;102093.72;5072409;28;20392;-64
2022/08/10 09:09:19;;;;;;;10.05;4.40;;;;;;;24.71;38.71;102101.59;5052946;28;20072;-64
2022/08/10 09:14:34;;;;;;;14.38;4.30;;;;;;;24.84;39.96;102094.47;5115570;27;20346;-66
2022/08/10 09:17:16;;;;;;;16.23;4.50;;;;;;;24.95;40.22;102082.91;5116892;27;20046;-64
2022/08/10 09:20:02;;;;;;;13.48;4.75;;;;;;;25.07;38.84;102092.03;5113771;27;20500;-65
2022/08/10 09:22:39;;;;;;;13.65;4.60;;;;;;;25.26;38.71;102084.81;5103853;27;20094;-61
2022/08/10 09:25:16;;;;;;;16.42;4.80;;;;;;;25.32;39.52;102083.09;5082617;28;20427;-61
2022/08/10 09:27:46;;;;;;;10.48;4.30;;;;;;;25.41;39.61;102089.97;5092275;28;20390;-61
2022/08/10 09:30:17;;;;;;;15.20;4.53;;;;;;;25.38;39.02;102090.41;5099009;28;20063;-62
2022/08/10 09:32:52;;;;;;;73.22;40.10;;;;;;;25.51;39.35;102083.19;5099721;28;20046;-62
2022/08/10 09:35:58;;;;;;;17.95;6.85;;;;;;;25.59;38.75;102078.28;5097720;28;20047;-63
2022/08/10 09:38:44;;;;;;;19.60;4.38;;;;;;;25.61;38.44;102078.06;5103359;28;20085;-62
2022/08/10 09:41:24;;;;;;;18.30;5.28;;;;;;;25.71;38.94;102064.00;5130089;27;20074;-61
2022/08/10 09:44:06;;;;;;;19.80;4.90;;;;;;;25.81;38.86;102059.72;5101226;28;20093;-62
2022/08/10 09:46:49;;;;;;;16.33;4.85;;;;;;;25.99;38.23;102061.63;5120589;27;20401;-63
2022/08/10 09:49:35;;;;;;;13.70;4.70;;;;;;;25.91;38.57;102066.53;5096562;28;20741;-62
2022/08/10 09:52:27;;;;;;;18.20;4.50;;;;;;;25.96;38.63;102058.53;5102921;28;20534;-62
2022/08/10 09:55:10;;;;;;;15.68;4.30;;;;;;;26.15;38.64;102053.97;5106666;28;20059;-62
2022/08/10 09:58:05;;;;;;;13.73;4.57;;;;;;;26.32;37.11;102046.00;5105617;28;20048;-63
2022/08/10 10:00:40;;;;;;;12.73;4.72;;;;;;;26.43;36.83;102042.50;5106233;28;21537;-63
2022/08/10 10:03:25;;;;;;;11.85;4.57;;;;;;;26.78;36.47;102031.00;5118665;27;20043;-60
2022/08/10 10:08:51;;;;;;;12.82;4.35;;;;;;;27.20;35.64;102039.97;5107587;27;20412;-60
2022/08/10 10:11:44;;;;;;;11.88;4.63;;;;;;;27.18;35.18;102035.84;5100197;28;20119;-61
2022/08/10 10:14:34;;;;;;;13.63;4.60;;;;;;;27.34;35.01;102031.63;5117273;28;20044;-61
2022/08/10 10:17:11;;;;;;;16.40;4.63;;;;;;;27.63;34.59;102026.28;5095223;28;20115;-62
2022/08/10 10:19:54;;;;;;;19.40;4.90;;;;;;;27.87;33.74;102019.78;5101005;28;20286;-61
2022/08/10 10:22:51;;;;;;;12.95;5.03;;;;;;;28.37;32.20;102006.63;5099088;28;20051;-61
2022/08/10 10:25:28;;;;;;;13.23;4.88;;;;;;;28.56;32.93;102023.66;5102827;28;20070;-61
2022/08/10 10:28:09;;;;;;;12.32;4.50;;;;;;;28.68;31.88;102021.72;5102430;28;20036;-61
2022/08/10 10:30:51;;;;;;;15.90;4.70;;;;;;;28.60;30.70;102024.84;5101529;28;20066;-61
2022/08/10 10:33:44;;;;;;;12.20;4.57;;;;;;;28.31;31.14;102013.88;5103483;28;20054;-61
2022/08/10 10:36:14;;;;;;;15.77;4.80;;;;;;;28.28;29.63;102012.44;5087308;28;20062;-61
2022/08/10 10:38:42;;;;;;;25.50;7.93;;;;;;;28.49;30.43;102010.97;5103979;28;20044;-61
2022/08/10 10:41:49;;;;;;;10.65;4.40;;;;;;;28.60;29.94;102013.94;5103591;28;20081;-61
2022/08/10 10:44:34;;;;;;;15.25;6.78;;;;;;;29.04;29.13;102014.16;5105952;28;20055;-61
2022/08/10 10:47:36;;;;;;;14.00;6.53;;;;;;;28.75;29.64;102002.47;5103919;28;20036;-61
2022/08/10 10:50:17;;;;;;;13.55;4.68;;;;;;;28.70;29.49;101997.72;5089293;28;20047;-61
2022/08/10 10:53:04;;;;;;;16.48;5.38;;;;;;;28.57;29.72;101992.56;5103975;28;20085;-62
2022/08/10 10:55:42;;;;;;;14.25;5.18;;;;;;;28.67;30.26;101982.66;5101987;28;20059;-61
2022/08/10 11:06:49;;;;;;;12.75;4.47;;;;;;;28.73;29.47;101978.13;5105410;27;20427;-61
2022/08/10 11:09:38;;;;;;;17.20;5.00;;;;;;;28.83;29.50;101972.81;5083344;28;20048;-61
2022/08/10 11:12:18;;;;;;;20.88;5.22;;;;;;;28.80;29.51;101973.34;5081343;28;20040;-61
2022/08/10 11:14:57;;;;;;;17.65;8.77;;;;;;;29.07;30.36;101970.78;5077088;28;20041;-61
2022/08/10 11:17:31;;;;;;;17.15;5.30;;;;;;;29.35;29.08;101963.56;5111717;28;20048;-60
2022/08/10 11:20:19;;;;;;;24.42;9.10;;;;;;;29.43;28.89;101956.84;5074503;28;20046;-60
2022/08/10 11:23:25;;;;;;;15.98;5.53;;;;;;;29.16;29.16;101963.03;5080213;28;20048;-60
2022/08/10 11:26:00;;;;;;;12.98;5.10;;;;;;;28.99;29.42;101965.72;5082150;28;20129;-61
2022/08/10 11:31:18;;;;;;;16.75;5.03;;;;;;;29.45;28.81;101950.06;5105692;27;20396;-61
2022/08/10 11:36:48;;;;;;;26.65;6.20;;;;;;;29.40;28.43;101950.00;5101467;27;20501;-59
2022/08/10 11:39:42;;;;;;;18.30;5.38;;;;;;;29.56;28.72;101942.84;5101552;28;20443;-59
2022/08/10 11:42:50;;;;;;;11.82;4.65;;;;;;;29.42;28.32;101947.81;5097000;28;20040;-59
2022/08/10 11:45:24;;;;;;;14.73;4.70;;;;;;;29.48;28.09;101943.25;5102120;28;20091;-59
2022/08/10 11:47:57;;;;;;;19.33;5.07;;;;;;;29.70;28.64;101943.28;5099977;28;20950;-60
2022/08/10 11:50:32;;;;;;;12.80;4.78;;;;;;;29.98;27.95;101942.28;5106914;28;20071;-59
2022/08/10 11:53:21;;;;;;;13.27;4.47;;;;;;;29.99;27.64;101940.38;5104228;28;20032;-59
2022/08/10 11:55:54;;;;;;;15.77;4.78;;;;;;;30.05;27.94;101936.59;5102833;28;20044;-63
2022/08/10 12:01:16;;;;;;;12.20;4.75;;;;;;;30.11;27.92;101923.81;5093621;28;20059;-60
2022/08/10 12:03:45;;;;;;;17.90;4.65;;;;;;;30.11;27.51;101924.66;5098694;28;21206;-60
2022/08/10 12:06:19;;;;;;;15.55;4.47;;;;;;;30.29;27.55;101925.38;5106174;28;20047;-60
2022/08/10 12:08:56;;;;;;;16.85;4.90;;;;;;;30.47;27.01;101933.25;5098696;28;20134;-60
2022/08/10 12:11:27;;;;;;;16.73;6.10;;;;;;;30.52;27.22;101927.81;5095798;28;20048;-59
2022/08/10 12:14:17;;;;;;;16.05;9.55;;;;;;;30.77;26.43;101929.13;5105421;28;20093;-59
2022/08/10 12:16:59;;;;;;;13.20;4.47;;;;;;;30.86;26.25;101924.81;5096961;28;20130;-60
2022/08/10 12:19:36;;;;;;;14.57;4.70;;;;;;;30.45;26.15;101918.97;5101447;28;20089;-60
2022/08/10 12:22:06;;;;;;;12.95;4.57;;;;;;;30.20;27.15;101922.28;5104208;28;20044;-60